Time;durP1;ratioP1;P1;durP2;ratioP2;P2;SDS_P1;SDS_P2;PMS_P1;PMS_P2;Temp;Humidity;BMP_temperature;BMP_pressure;BME280_temperature;BME280_humidity;BME280_pressure;Samples;Min_cycle;Max_cycle;Signal;HPM_P1;HPM_P2
2023/01/05 11:00:09;;;;;;;1999.90;999.90;;;25.70;89.50;;;;;;5148493;27;20378;-61
2023/01/05 11:11:43;;;;;;;1999.90;999.90;;;25.90;89.20;;;;;;5143953;27;20397;-73
2023/01/05 11:28:09;;;;;;;1999.90;999.90;;;24.80;91.70;;;;;;5233326;27;20438;-70
2023/01/05 11:31:03;;;;;;;1999.90;999.90;;;24.70;91.30;;;;;;4680629;28;20094;-69
2023/01/05 11:36:33;;;;;;;1999.90;999.90;;;25.50;91.20;;;;;;5119342;27;20388;-86
2023/01/05 12:05:09;;;;;;;9.60;8.57;;;25.10;91.10;;;;;;4907828;27;20390;-63
2023/01/05 12:07:49;;;;;;;8.82;7.78;;;24.70;90.40;;;;;;5182062;28;20047;-61
2023/01/05 12:10:50;;;;;;;8.82;7.43;;;24.70;90.70;;;;;;5286617;28;20051;-62
2023/01/05 12:13:24;;;;;;;10.07;7.13;;;24.60;90.80;;;;;;5210280;28;20161;-63
2023/01/05 12:16:06;;;;;;;8.77;7.90;;;24.60;91.00;;;;;;5290289;27;20042;-62
2023/01/05 12:25:49;;;;;;;9.00;6.32;;;27.00;88.90;;;;;;5191730;27;20385;-63
2023/01/05 12:29:01;;;;;;;8.25;6.22;;;25.60;85.10;;;;;;5206583;27;20246;-68
2023/01/05 12:32:00;;;;;;;9.00;6.50;;;25.10;87.20;;;;;;5275002;28;20498;-70
2023/01/05 12:34:34;;;;;;;9.32;7.03;;;25.00;87.40;;;;;;5288802;28;20051;-69
2023/01/05 12:37:26;;;;;;;9.05;6.68;;;24.80;87.90;;;;;;5281355;28;20103;-64
2023/01/05 12:39:57;;;;;;;8.88;6.60;;;24.90;87.80;;;;;;5301428;28;20604;-68
2023/01/05 12:42:57;;;;;;;9.93;6.38;;;24.90;87.60;;;;;;5293944;28;20079;-67
2023/01/05 12:46:00;;;;;;;7.00;6.20;;;24.70;87.70;;;;;;5211057;27;1726507;-63
2023/01/05 12:48:40;;;;;;;7.35;6.43;;;24.80;87.70;;;;;;5245682;28;20029;-75
2023/01/05 12:51:18;;;;;;;10.68;6.63;;;24.80;87.60;;;;;;5242128;28;20100;-67
2023/01/05 12:53:55;;;;;;;10.13;7.10;;;24.80;87.50;;;;;;5253402;22;20386;-68
2023/01/05 12:56:33;;;;;;;9.80;6.50;;;24.80;87.50;;;;;;5198660;28;20155;-67
2023/01/05 12:59:17;;;;;;;8.00;6.43;;;24.80;87.40;;;;;;5221646;28;20056;-67
2023/01/05 13:02:06;;;;;;;8.23;6.53;;;24.90;87.20;;;;;;5216133;28;20037;-70
2023/01/05 13:05:02;;;;;;;8.25;6.82;;;24.80;87.20;;;;;;5214174;28;20045;-65
2023/01/05 13:07:46;;;;;;;7.28;6.38;;;24.80;87.20;;;;;;5222325;28;20128;-65
2023/01/05 13:10:32;;;;;;;8.43;6.50;;;24.80;87.30;;;;;;5223457;28;20191;-66
2023/01/05 13:13:13;;;;;;;7.95;6.40;;;24.80;87.30;;;;;;5217858;28;20033;-67
2023/01/05 13:16:11;;;;;;;7.18;6.47;;;24.80;87.20;;;;;;5218847;28;20498;-66
2023/01/05 13:18:51;;;;;;;9.75;6.85;;;24.70;87.20;;;;;;5210067;28;20061;-68
2023/01/05 13:21:26;;;;;;;9.15;6.60;;;24.70;87.20;;;;;;5217914;28;20049;-65
2023/01/05 13:24:21;;;;;;;7.80;6.13;;;24.70;87.20;;;;;;5236952;22;20053;-68
2023/01/05 13:26:53;;;;;;;9.52;6.32;;;24.80;87.00;;;;;;5216856;28;20132;-73
2023/01/05 13:29:29;;;;;;;8.45;6.35;;;24.70;87.00;;;;;;5221072;28;20147;-71
2023/01/05 13:32:34;;;;;;;8.20;6.70;;;24.70;87.20;;;;;;5221332;28;20037;-65
2023/01/05 13:35:14;;;;;;;7.85;6.50;;;24.80;87.20;;;;;;5215662;28;20060;-68
2023/01/05 13:38:04;;;;;;;7.63;6.35;;;24.70;87.20;;;;;;5206820;28;20308;-69
2023/01/05 13:41:25;;;;;;;9.80;6.55;;;24.70;87.20;;;;;;5177081;28;20041;-68
2023/01/05 13:44:23;;;;;;;8.13;6.43;;;24.70;87.20;;;;;;5181994;28;20044;-69
2023/01/05 13:47:24;;;;;;;7.35;6.40;;;24.70;87.00;;;;;;5224109;28;20111;-69
2023/01/05 13:50:24;;;;;;;8.55;6.20;;;24.70;87.00;;;;;;5224039;28;20053;-68
2023/01/05 13:53:10;;;;;;;9.20;6.28;;;24.70;87.00;;;;;;5206133;28;20060;-68
2023/01/05 13:55:54;;;;;;;8.45;6.95;;;24.70;86.90;;;;;;5222971;23;20053;-68
2023/01/05 13:58:28;;;;;;;8.45;6.40;;;24.70;87.20;;;;;;5205133;28;20440;-72
2023/01/05 14:01:02;;;;;;;7.30;6.47;;;24.70;87.00;;;;;;5207218;28;20052;-69
2023/01/05 14:03:45;;;;;;;12.27;6.93;;;24.70;86.90;;;;;;5207060;28;20053;-70
2023/01/05 14:06:35;;;;;;;10.10;6.78;;;24.60;86.90;;;;;;5203063;28;20071;-67
2023/01/05 14:09:13;;;;;;;9.95;6.13;;;24.70;86.80;;;;;;5210630;28;20406;-70
2023/01/05 14:12:14;;;;;;;7.13;5.88;;;24.70;87.00;;;;;;5212063;28;20154;-67
2023/01/05 14:15:08;;;;;;;10.07;6.97;;;24.70;86.80;;;;;;5210771;28;20041;-70
2023/01/05 14:17:51;;;;;;;8.43;6.30;;;24.70;86.90;;;;;;5205835;28;20049;-70
2023/01/05 14:20:31;;;;;;;8.32;6.20;;;24.60;86.90;;;;;;5197211;28;20541;-69
2023/01/05 14:23:28;;;;;;;9.73;6.05;;;24.70;87.00;;;;;;5201778;28;20053;-69
2023/01/05 14:26:05;;;;;;;9.55;6.13;;;24.70;87.00;;;;;;5234065;22;20051;-67
2023/01/05 14:28:42;;;;;;;10.35;6.68;;;24.70;87.00;;;;;;5225970;28;20163;-67
2023/01/05 14:31:13;;;;;;;8.13;6.18;;;24.60;87.00;;;;;;5227983;28;20040;-66
